Time;durP1;ratioP1;P1;durP2;ratioP2;P2;SDS_P1;SDS_P2;PMS_P1;PMS_P2;Temp;Humidity;BMP_temperature;BMP_pressure;BME280_temperature;BME280_humidity;BME280_pressure;Samples;Min_cycle;Max_cycle;Signal;HPM_P1;HPM_P2
2023/12/11 00:01:14;;;;;;;;;;;6.70;99.90;;;;;;5120383;28;19936;-69
2023/12/11 00:03:41;;;;;;;;;;;6.70;99.90;;;;;;5103177;28;20213;-69
2023/12/11 00:06:09;;;;;;;;;;;6.60;99.90;;;;;;5102524;28;20225;-69
2023/12/11 00:08:36;;;;;;;;;;;6.60;99.90;;;;;;5102894;28;19920;-69
2023/12/11 00:11:03;;;;;;;;;;;6.60;99.90;;;;;;5103153;28;19927;-69
2023/12/11 00:13:29;;;;;;;;;;;6.60;99.90;;;;;;5103093;28;19920;-69
2023/12/11 00:15:56;;;;;;;;;;;6.60;99.90;;;;;;5102618;28;19920;-70
2023/12/11 00:18:23;;;;;;;;;;;6.60;99.90;;;;;;5102880;28;19920;-69
2023/12/11 00:20:49;;;;;;;;;;;6.60;99.90;;;;;;5108103;28;19927;-68
2023/12/11 00:23:17;;;;;;;;;;;6.60;99.90;;;;;;5102919;28;20325;-69
2023/12/11 00:25:47;;;;;;;;;;;6.60;99.90;;;;;;5102782;28;19954;-69
2023/12/11 00:28:14;;;;;;;;;;;6.60;99.90;;;;;;5102480;28;19920;-69
2023/12/11 00:30:40;;;;;;;;;;;6.60;99.90;;;;;;5102684;28;20205;-70
2023/12/11 00:33:07;;;;;;;;;;;6.60;99.90;;;;;;5102566;28;20202;-70
2023/12/11 00:35:34;;;;;;;;;;;6.60;99.90;;;;;;5102557;28;20110;-70
2023/12/11 00:38:00;;;;;;;;;;;6.70;99.90;;;;;;5102103;28;19920;-69
2023/12/11 00:40:28;;;;;;;;;;;6.70;99.90;;;;;;5102662;28;19966;-69
2023/12/11 00:42:55;;;;;;;;;;;6.70;99.90;;;;;;5102758;28;19927;-70
2023/12/11 00:45:22;;;;;;;;;;;6.70;99.90;;;;;;5102291;28;19927;-69
2023/12/11 00:47:48;;;;;;;;;;;6.70;99.90;;;;;;5103393;28;20117;-69
2023/12/11 00:50:15;;;;;;;;;;;6.70;99.90;;;;;;5101856;28;19920;-69
2023/12/11 00:52:42;;;;;;;;;;;6.70;99.90;;;;;;5102792;28;19927;-69
2023/12/11 00:55:09;;;;;;;;;;;6.80;99.90;;;;;;5102198;28;19920;-69
2023/12/11 00:57:37;;;;;;;;;;;6.80;99.90;;;;;;5102708;28;19920;-69
2023/12/11 01:00:05;;;;;;;;;;;6.80;99.90;;;;;;5102350;28;19921;-69
2023/12/11 01:02:32;;;;;;;;;;;6.80;99.90;;;;;;5103031;28;19920;-70
2023/12/11 01:04:58;;;;;;;;;;;6.80;99.90;;;;;;5102608;28;19994;-69
2023/12/11 01:07:25;;;;;;;;;;;6.70;99.90;;;;;;5102910;28;19947;-69
2023/12/11 01:09:51;;;;;;;;;;;6.80;99.90;;;;;;5106294;28;19952;-69
2023/12/11 01:12:19;;;;;;;;;;;6.70;99.90;;;;;;5106413;28;19920;-69
2023/12/11 01:14:47;;;;;;;;;;;6.80;99.90;;;;;;5101267;28;19927;-71
2023/12/11 01:17:13;;;;;;;;;;;6.80;99.90;;;;;;5112470;28;20233;-69
2023/12/11 01:19:41;;;;;;;;;;;6.80;99.90;;;;;;5105901;28;20225;-69
2023/12/11 01:22:08;;;;;;;;;;;6.80;99.90;;;;;;5104479;28;19970;-69
2023/12/11 01:24:35;;;;;;;;;;;6.80;99.90;;;;;;5105356;28;19920;-69
2023/12/11 01:27:01;;;;;;;;;;;6.80;99.90;;;;;;5105938;28;20232;-69
2023/12/11 01:29:28;;;;;;;;;;;6.80;99.90;;;;;;5106154;28;20117;-69
2023/12/11 01:31:57;;;;;;;;;;;6.80;99.90;;;;;;5105777;28;20252;-69
2023/12/11 01:34:23;;;;;;;;;;;6.90;99.90;;;;;;5105550;28;19920;-69
2023/12/11 01:36:50;;;;;;;;;;;6.90;99.90;;;;;;5105883;28;19920;-69
2023/12/11 01:39:17;;;;;;;;;;;7.00;99.90;;;;;;5106014;28;19920;-69
2023/12/11 01:41:43;;;;;;;;;;;7.00;99.90;;;;;;5098861;28;19927;-69
2023/12/11 01:44:10;;;;;;;;;;;7.00;99.90;;;;;;5104094;28;19927;-69
2023/12/11 01:46:37;;;;;;;;;;;7.10;99.90;;;;;;5105611;28;20209;-69
2023/12/11 01:49:05;;;;;;;;;;;7.20;99.90;;;;;;5105892;28;20248;-69
2023/12/11 01:51:31;;;;;;;;;;;7.20;99.90;;;;;;5105923;28;19920;-69
2023/12/11 01:53:58;;;;;;;;;;;7.20;99.90;;;;;;5105032;28;19924;-69
2023/12/11 01:56:25;;;;;;;;;;;7.30;99.90;;;;;;5105576;28;20194;-69
2023/12/11 01:58:51;;;;;;;;;;;7.30;99.90;;;;;;5105555;28;19927;-69
2023/12/11 02:01:20;;;;;;;;;;;7.30;99.90;;;;;;5097190;28;19928;-68
2023/12/11 02:03:46;;;;;;;;;;;7.30;99.90;;;;;;5104973;28;19943;-69
2023/12/11 02:06:14;;;;;;;;;;;7.40;99.90;;;;;;5105432;28;19958;-69
2023/12/11 02:08:41;;;;;;;;;;;7.40;99.90;;;;;;5105263;28;19920;-69
2023/12/11 02:11:08;;;;;;;;;;;7.50;99.90;;;;;;5105338;28;19920;-69
2023/12/11 02:13:35;;;;;;;;;;;7.50;99.90;;;;;;5105023;28;19920;-68
2023/12/11 02:16:01;;;;;;;;;;;7.50;99.90;;;;;;5105025;28;19962;-69
2023/12/11 02:18:28;;;;;;;;;;;7.60;99.90;;;;;;5104852;28;19927;-69
2023/12/11 02:20:55;;;;;;;;;;;7.60;99.90;;;;;;5104881;28;19927;-68
2023/12/11 02:23:27;;;;;;;;;;;7.60;99.90;;;;;;5104912;28;19963;-69
2023/12/11 02:26:01;;;;;;;;;;;7.70;99.90;;;;;;5104402;28;19927;-69
2023/12/11 02:28:27;;;;;;;;;;;7.70;99.90;;;;;;5104875;28;19920;-69
2023/12/11 02:30:54;;;;;;;;;;;7.70;99.90;;;;;;5104915;28;20241;-69
2023/12/11 02:33:21;;;;;;;;;;;7.70;99.90;;;;;;5104998;28;19927;-68
2023/12/11 02:35:47;;;;;;;;;;;7.70;99.90;;;;;;5104519;28;19974;-69
2023/12/11 02:38:14;;;;;;;;;;;7.70;99.90;;;;;;5095134;28;19932;-69
2023/12/11 02:40:41;;;;;;;;;;;7.70;99.90;;;;;;5104755;28;19928;-69
2023/12/11 02:43:09;;;;;;;;;;;7.60;99.90;;;;;;5104389;28;19955;-70
2023/12/11 02:45:35;;;;;;;;;;;7.60;99.90;;;;;;5103970;28;19920;-69
2023/12/11 02:48:03;;;;;;;;;;;7.60;99.90;;;;;;5103929;28;19920;-69
2023/12/11 02:50:30;;;;;;;;;;;7.60;99.90;;;;;;5104598;28;19920;-68
2023/12/11 02:52:57;;;;;;;;;;;7.60;99.90;;;;;;5104683;28;19920;-69
2023/12/11 02:55:24;;;;;;;;;;;7.60;99.90;;;;;;5103422;28;19920;-69
2023/12/11 02:57:51;;;;;;;;;;;7.70;99.90;;;;;;5104299;28;19928;-69
2023/12/11 03:00:19;;;;;;;;;;;7.70;99.90;;;;;;5104609;28;19920;-69
2023/12/11 03:02:45;;;;;;;;;;;7.70;99.90;;;;;;5104008;28;20178;-69
2023/12/11 03:05:12;;;;;;;;;;;7.70;99.90;;;;;;5103672;28;19963;-68
2023/12/11 03:07:39;;;;;;;;;;;7.70;99.90;;;;;;5104192;28;19920;-69
2023/12/11 03:10:06;;;;;;;;;;;7.70;99.90;;;;;;5104064;28;19927;-69
2023/12/11 03:12:32;;;;;;;;;;;7.70;99.90;;;;;;5103467;28;19928;-68
2023/12/11 03:14:59;;;;;;;;;;;7.70;99.90;;;;;;5102849;28;20256;-69
2023/12/11 03:17:27;;;;;;;;;;;7.70;99.90;;;;;;5103955;28;20125;-69
2023/12/11 03:19:54;;;;;;;;;;;7.70;99.90;;;;;;5103785;28;19920;-69
2023/12/11 03:22:23;;;;;;;;;;;7.70;99.90;;;;;;5103740;28;19920;-69
2023/12/11 03:24:50;;;;;;;;;;;7.70;99.90;;;;;;5102701;28;20264;-69
2023/12/11 03:27:17;;;;;;;;;;;7.70;99.90;;;;;;5103852;28;20140;-69
2023/12/11 03:29:44;;;;;;;;;;;7.80;99.90;;;;;;5103557;28;19935;-69
2023/12/11 03:32:10;;;;;;;;;;;7.80;99.90;;;;;;5103328;28;19927;-69
2023/12/11 03:34:38;;;;;;;;;;;7.80;99.90;;;;;;5102817;28;20210;-69
2023/12/11 03:37:05;;;;;;;;;;;7.80;99.90;;;;;;5103085;28;19935;-69
2023/12/11 03:39:32;;;;;;;;;;;7.90;99.90;;;;;;5103658;28;19927;-69
2023/12/11 03:41:59;;;;;;;;;;;7.90;99.90;;;;;;5103327;28;20004;-69
2023/12/11 03:44:24;;;;;;;;;;;7.90;99.90;;;;;;5102088;28;19920;-69
2023/12/11 03:46:51;;;;;;;;;;;7.90;99.90;;;;;;5103637;28;19922;-69
2023/12/11 03:49:19;;;;;;;;;;;7.90;99.90;;;;;;5095283;28;19928;-70
2023/12/11 03:51:48;;;;;;;;;;;7.90;99.90;;;;;;5103386;28;19920;-69
2023/12/11 03:54:15;;;;;;;;;;;8.00;99.90;;;;;;5102935;28;19963;-69
2023/12/11 03:56:41;;;;;;;;;;;7.90;99.90;;;;;;5106771;28;20102;-69
2023/12/11 03:59:08;;;;;;;;;;;7.90;99.90;;;;;;5106695;28;19943;-69
2023/12/11 04:01:35;;;;;;;;;;;7.90;99.90;;;;;;5124700;28;19920;-70
2023/12/11 04:04:02;;;;;;;;;;;7.80;99.90;;;;;;5107649;28;20121;-69
2023/12/11 04:06:28;;;;;;;;;;;7.80;99.90;;;;;;5103172;28;19920;-69
2023/12/11 04:08:56;;;;;;;;;;;7.80;99.90;;;;;;5102824;28;20232;-69
2023/12/11 04:11:23;;;;;;;;;;;7.80;99.90;;;;;;5103377;28;19927;-68
2023/12/11 04:13:50;;;;;;;;;;;7.70;99.90;;;;;;5102321;28;19920;-69
2023/12/11 04:16:16;;;;;;;;;;;7.70;99.90;;;;;;5102802;28;20228;-69
2023/12/11 04:18:43;;;;;;;;;;;7.70;99.90;;;;;;5103024;28;20000;-68
2023/12/11 04:21:09;;;;;;;;;;;7.70;99.90;;;;;;5103108;28;19927;-71
2023/12/11 04:23:36;;;;;;;;;;;7.70;99.90;;;;;;5102881;28;19920;-69
2023/12/11 04:26:04;;;;;;;;;;;7.70;99.90;;;;;;5102187;28;20205;-69
2023/12/11 04:28:31;;;;;;;;;;;7.70;99.90;;;;;;5102742;28;19927;-69
2023/12/11 04:30:58;;;;;;;;;;;7.70;99.90;;;;;;5102784;28;19921;-69
2023/12/11 04:33:25;;;;;;;;;;;7.60;99.90;;;;;;5113028;28;19983;-69
2023/12/11 04:35:51;;;;;;;;;;;7.60;99.90;;;;;;5102767;28;19927;-69
2023/12/11 04:38:18;;;;;;;;;;;7.60;99.90;;;;;;5093792;28;19970;-69
2023/12/11 04:40:45;;;;;;;;;;;7.60;99.90;;;;;;5103018;28;19927;-69
2023/12/11 04:43:13;;;;;;;;;;;7.60;99.90;;;;;;5097779;28;19979;-69
2023/12/11 04:45:39;;;;;;;;;;;7.60;99.90;;;;;;5098178;28;19955;-69
2023/12/11 04:48:06;;;;;;;;;;;7.70;99.90;;;;;;5106374;28;20229;-69
2023/12/11 04:50:33;;;;;;;;;;;7.70;99.90;;;;;;5098031;28;20233;-69
2023/12/11 04:52:59;;;;;;;;;;;7.70;99.90;;;;;;5106738;28;19955;-71
2023/12/11 04:55:27;;;;;;;;;;;7.60;99.90;;;;;;5119815;28;19927;-69
2023/12/11 04:57:53;;;;;;;;;;;7.60;99.90;;;;;;5106528;28;20098;-69
2023/12/11 05:00:21;;;;;;;;;;;7.60;99.90;;;;;;5106814;28;19942;-69
2023/12/11 05:02:48;;;;;;;;;;;7.60;99.90;;;;;;5106606;28;19974;-69
2023/12/11 05:05:16;;;;;;;;;;;7.60;99.90;;;;;;5105949;28;19920;-69
2023/12/11 05:07:42;;;;;;;;;;;7.60;99.90;;;;;;5090889;28;19924;-69
2023/12/11 05:10:09;;;;;;;;;;;7.70;99.90;;;;;;5105302;28;19924;-69
2023/12/11 05:12:36;;;;;;;;;;;7.60;99.90;;;;;;5105431;28;20328;-69
2023/12/11 05:15:03;;;;;;;;;;;7.70;99.90;;;;;;5105476;28;20232;-69
2023/12/11 05:17:31;;;;;;;;;;;7.70;99.90;;;;;;5106105;28;19920;-69
2023/12/11 05:19:57;;;;;;;;;;;7.70;99.90;;;;;;5106187;28;19920;-70
2023/12/11 05:22:24;;;;;;;;;;;7.80;99.90;;;;;;5106211;28;19966;-69
2023/12/11 05:24:51;;;;;;;;;;;7.80;99.90;;;;;;5105559;28;19960;-69
2023/12/11 05:27:18;;;;;;;;;;;7.90;99.90;;;;;;5105879;28;19920;-69
2023/12/11 05:29:44;;;;;;;;;;;7.90;99.90;;;;;;5105973;28;19928;-69
2023/12/11 05:32:12;;;;;;;;;;;8.00;99.90;;;;;;5105788;28;20121;-71
2023/12/11 05:34:40;;;;;;;;;;;8.10;99.90;;;;;;5105446;28;19920;-68
2023/12/11 05:37:07;;;;;;;;;;;8.10;99.90;;;;;;5101735;28;19927;-69
2023/12/11 05:39:34;;;;;;;;;;;8.10;99.90;;;;;;5105609;28;20256;-69
2023/12/11 05:42:00;;;;;;;;;;;8.10;99.90;;;;;;5105561;28;20114;-70
2023/12/11 05:44:27;;;;;;;;;;;8.10;99.90;;;;;;5105231;28;19952;-69
2023/12/11 05:46:54;;;;;;;;;;;8.10;99.90;;;;;;5105065;28;19927;-69
2023/12/11 05:49:21;;;;;;;;;;;8.20;99.90;;;;;;5105239;28;19920;-69
2023/12/11 05:51:49;;;;;;;;;;;8.10;99.90;;;;;;5105642;28;19920;-69
2023/12/11 05:54:15;;;;;;;;;;;8.10;99.90;;;;;;5104054;28;19920;-69
2023/12/11 05:56:42;;;;;;;;;;;8.00;99.90;;;;;;5103839;28;20078;-69
2023/12/11 05:59:09;;;;;;;;;;;8.00;99.90;;;;;;5101286;28;19921;-69
2023/12/11 06:01:35;;;;;;;;;;;8.00;99.90;;;;;;5096102;28;19926;-71
2023/12/11 06:04:03;;;;;;;;;;;7.90;99.90;;;;;;5116499;28;19920;-69
2023/12/11 06:06:30;;;;;;;;;;;7.90;99.90;;;;;;5111944;28;19991;-70
2023/12/11 06:08:58;;;;;;;;;;;7.80;99.90;;;;;;5102232;28;19920;-70
2023/12/11 06:11:25;;;;;;;;;;;7.80;99.90;;;;;;5105242;28;19928;-69
2023/12/11 06:13:52;;;;;;;;;;;7.80;99.90;;;;;;5104828;28;19928;-70
2023/12/11 06:16:20;;;;;;;;;;;7.80;99.90;;;;;;5113521;28;19920;-69
2023/12/11 06:18:46;;;;;;;;;;;7.80;99.90;;;;;;5105255;28;19920;-67
2023/12/11 06:21:19;;;;;;;;;;;7.80;99.90;;;;;;5105073;28;19927;-70
2023/12/11 06:23:46;;;;;;;;;;;7.80;99.90;;;;;;5109515;28;20231;-71
2023/12/11 06:26:28;;;;;;;;;;;7.80;99.90;;;;;;5107502;28;19928;-69
2023/12/11 06:28:54;;;;;;;;;;;7.80;99.90;;;;;;5108045;28;19926;-70
2023/12/11 06:31:21;;;;;;;;;;;7.80;99.90;;;;;;5105258;28;19958;-69
2023/12/11 06:33:48;;;;;;;;;;;7.80;99.90;;;;;;5104769;28;19920;-69
2023/12/11 06:36:14;;;;;;;;;;;7.80;99.90;;;;;;5105403;28;19920;-69
2023/12/11 06:38:41;;;;;;;;;;;7.80;99.90;;;;;;5104971;28;19920;-70
2023/12/11 06:41:08;;;;;;;;;;;7.80;99.90;;;;;;5104978;28;19920;-69
2023/12/11 06:43:36;;;;;;;;;;;7.90;99.90;;;;;;5104883;28;19958;-71
2023/12/11 06:46:03;;;;;;;;;;;7.90;99.90;;;;;;5104589;28;20106;-70
2023/12/11 06:48:30;;;;;;;;;;;7.90;99.90;;;;;;5105053;28;19927;-70
2023/12/11 06:50:56;;;;;;;;;;;8.00;99.90;;;;;;5104712;28;19920;-69
2023/12/11 06:53:23;;;;;;;;;;;8.00;99.90;;;;;;5102761;28;20121;-70
2023/12/11 06:55:50;;;;;;;;;;;8.00;99.90;;;;;;5105103;28;19928;-71
2023/12/11 06:58:16;;;;;;;;;;;8.00;99.90;;;;;;5103260;28;19927;-69
2023/12/11 07:00:44;;;;;;;;;;;8.10;99.90;;;;;;5104072;28;19927;-69
2023/12/11 07:03:11;;;;;;;;;;;8.10;99.90;;;;;;5104462;28;19920;-70
2023/12/11 07:05:38;;;;;;;;;;;8.10;99.90;;;;;;5103352;28;19927;-69
2023/12/11 07:08:05;;;;;;;;;;;8.10;99.90;;;;;;5103863;28;19928;-69
2023/12/11 07:10:31;;;;;;;;;;;8.10;99.90;;;;;;5104332;28;19928;-70
2023/12/11 07:12:58;;;;;;;;;;;8.10;99.90;;;;;;5104473;28;20121;-69
2023/12/11 07:15:24;;;;;;;;;;;8.10;99.90;;;;;;5105588;28;19943;-69
2023/12/11 07:17:52;;;;;;;;;;;8.10;99.90;;;;;;5107824;28;19928;-70
2023/12/11 07:20:19;;;;;;;;;;;8.10;99.90;;;;;;5104280;28;19920;-70
2023/12/11 07:22:46;;;;;;;;;;;8.10;99.90;;;;;;5104051;28;19920;-69
2023/12/11 07:25:13;;;;;;;;;;;8.10;99.90;;;;;;5103495;28;19956;-69
2023/12/11 07:27:41;;;;;;;;;;;8.10;99.90;;;;;;5103703;28;20173;-70
2023/12/11 07:30:09;;;;;;;;;;;8.10;99.90;;;;;;5097194;28;19927;-70
2023/12/11 07:32:36;;;;;;;;;;;8.10;99.90;;;;;;5105848;28;19959;-70
2023/12/11 07:35:04;;;;;;;;;;;8.10;99.90;;;;;;5103090;28;19927;-70
2023/12/11 07:37:31;;;;;;;;;;;8.10;99.90;;;;;;5103572;28;19926;-70
2023/12/11 07:39:57;;;;;;;;;;;8.10;99.90;;;;;;5103738;28;19919;-69
2023/12/11 07:42:24;;;;;;;;;;;8.10;99.90;;;;;;5100047;28;19920;-69
2023/12/11 07:44:50;;;;;;;;;;;8.20;99.90;;;;;;5102593;28;19927;-69
2023/12/11 07:47:17;;;;;;;;;;;8.20;99.90;;;;;;5102556;28;19927;-69
2023/12/11 07:49:44;;;;;;;;;;;8.20;99.90;;;;;;5103914;28;19931;-70
2023/12/11 07:52:12;;;;;;;;;;;8.20;99.90;;;;;;5100747;28;19927;-69
2023/12/11 07:54:39;;;;;;;;;;;8.10;99.90;;;;;;5102799;28;20210;-70
2023/12/11 07:57:06;;;;;;;;;;;8.10;99.90;;;;;;5103246;28;19920;-69
2023/12/11 07:59:32;;;;;;;;;;;8.10;99.90;;;;;;5103537;28;20095;-70
2023/12/11 08:01:59;;;;;;;;;;;8.20;99.90;;;;;;5103978;28;19920;-70
2023/12/11 08:04:26;;;;;;;;;;;8.10;99.90;;;;;;5099417;28;19920;-70
2023/12/11 08:06:52;;;;;;;;;;;8.10;99.90;;;;;;5105660;28;19920;-73
2023/12/11 08:09:20;;;;;;;;;;;8.10;99.90;;;;;;5104067;28;19955;-70
2023/12/11 08:11:47;;;;;;;;;;;8.20;99.90;;;;;;5103450;28;19920;-70
2023/12/11 08:14:14;;;;;;;;;;;8.10;99.90;;;;;;5103070;28;19920;-69
2023/12/11 08:16:41;;;;;;;;;;;8.10;99.90;;;;;;5103335;28;19920;-70
2023/12/11 08:19:07;;;;;;;;;;;8.10;99.90;;;;;;5103549;28;20023;-70
2023/12/11 08:21:34;;;;;;;;;;;8.10;99.90;;;;;;5103748;28;19931;-70
2023/12/11 08:24:01;;;;;;;;;;;8.20;99.90;;;;;;5103096;28;19951;-71
2023/12/11 08:26:29;;;;;;;;;;;8.20;99.90;;;;;;5103750;28;19920;-70
2023/12/11 08:28:55;;;;;;;;;;;8.10;99.90;;;;;;5103279;28;19962;-70
2023/12/11 08:31:22;;;;;;;;;;;8.10;99.90;;;;;;5097993;28;19971;-70
2023/12/11 08:33:49;;;;;;;;;;;8.10;99.90;;;;;;5102542;28;20249;-70
2023/12/11 08:36:16;;;;;;;;;;;8.10;99.90;;;;;;5103306;28;19920;-69
2023/12/11 08:38:42;;;;;;;;;;;8.10;99.90;;;;;;5102907;28;19927;-70
2023/12/11 08:41:09;;;;;;;;;;;8.20;99.90;;;;;;5102276;28;19920;-70
2023/12/11 08:43:37;;;;;;;;;;;8.20;99.90;;;;;;5108112;28;19942;-70
2023/12/11 08:46:04;;;;;;;;;;;8.20;99.90;;;;;;5097492;28;20197;-70
2023/12/11 08:48:31;;;;;;;;;;;8.30;99.90;;;;;;5102183;28;20240;-70
2023/12/11 08:50:57;;;;;;;;;;;8.30;99.90;;;;;;5102618;28;20114;-71
2023/12/11 08:53:24;;;;;;;;;;;8.40;99.90;;;;;;5099194;28;20188;-70
2023/12/11 08:55:51;;;;;;;;;;;8.40;99.90;;;;;;5100039;28;19951;-68
2023/12/11 08:58:18;;;;;;;;;;;8.40;99.90;;;;;;5109573;28;19927;-70
2023/12/11 09:00:46;;;;;;;;;;;8.50;99.90;;;;;;5105933;28;20145;-69
2023/12/11 09:03:13;;;;;;;;;;;8.50;99.90;;;;;;5101458;28;19928;-70
2023/12/11 09:05:40;;;;;;;;;;;8.50;99.90;;;;;;5103061;28;19951;-69
2023/12/11 09:08:06;;;;;;;;;;;8.50;99.90;;;;;;5102516;28;19927;-70
2023/12/11 09:10:34;;;;;;;;;;;8.60;99.90;;;;;;5102823;28;19931;-70
2023/12/11 09:13:01;;;;;;;;;;;8.60;99.90;;;;;;5102155;28;19920;-70
2023/12/11 09:15:28;;;;;;;;;;;8.60;99.90;;;;;;5101994;28;19927;-70
2023/12/11 09:17:56;;;;;;;;;;;8.60;99.90;;;;;;5101247;28;20164;-69
2023/12/11 09:20:23;;;;;;;;;;;8.60;99.90;;;;;;5098421;28;19927;-69
2023/12/11 09:22:49;;;;;;;;;;;8.60;99.90;;;;;;5100408;28;20202;-70
2023/12/11 09:25:16;;;;;;;;;;;8.60;99.90;;;;;;5101278;28;19927;-68
2023/12/11 09:27:43;;;;;;;;;;;8.70;99.90;;;;;;5101740;28;19927;-69
2023/12/11 09:30:10;;;;;;;;;;;8.70;99.90;;;;;;5105181;28;19927;-71
2023/12/11 09:32:37;;;;;;;;;;;8.70;99.90;;;;;;5106285;28;19984;-70
2023/12/11 09:35:05;;;;;;;;;;;8.70;99.90;;;;;;5100301;28;19920;-70
2023/12/11 09:37:32;;;;;;;;;;;8.80;99.90;;;;;;5111696;28;19958;-70
2023/12/11 09:39:59;;;;;;;;;;;8.80;99.90;;;;;;5111665;28;19920;-70
2023/12/11 09:42:26;;;;;;;;;;;8.80;99.90;;;;;;5106078;28;19927;-70
2023/12/11 09:44:53;;;;;;;;;;;8.80;99.90;;;;;;5105116;28;19947;-70
2023/12/11 09:47:22;;;;;;;;;;;8.80;99.90;;;;;;5106282;28;19920;-70
2023/12/11 09:49:49;;;;;;;;;;;8.90;99.90;;;;;;5105776;28;19920;-70
2023/12/11 09:52:18;;;;;;;;;;;9.00;99.90;;;;;;5105640;28;19920;-70
2023/12/11 09:54:44;;;;;;;;;;;9.00;99.90;;;;;;5105513;28;19927;-70
2023/12/11 09:57:12;;;;;;;;;;;9.00;99.90;;;;;;5105829;28;19920;-69
2023/12/11 09:59:40;;;;;;;;;;;9.00;99.90;;;;;;5105191;28;19927;-70
2023/12/11 10:02:08;;;;;;;;;;;9.00;99.90;;;;;;5105490;28;19928;-70
2023/12/11 10:04:35;;;;;;;;;;;9.10;99.90;;;;;;5104844;28;20263;-70
2023/12/11 10:07:01;;;;;;;;;;;9.10;99.90;;;;;;5110795;28;20116;-71
2023/12/11 10:09:29;;;;;;;;;;;9.10;99.90;;;;;;5105283;28;19928;-69
2023/12/11 10:11:58;;;;;;;;;;;9.10;99.90;;;;;;5105059;28;19954;-70
2023/12/11 10:14:25;;;;;;;;;;;9.20;99.90;;;;;;5104479;28;19920;-70
2023/12/11 10:16:52;;;;;;;;;;;9.30;99.90;;;;;;5105123;28;20106;-70
2023/12/11 10:19:20;;;;;;;;;;;9.40;99.90;;;;;;5110334;28;19958;-70
2023/12/11 10:21:47;;;;;;;;;;;9.50;99.90;;;;;;5104983;28;19920;-70
2023/12/11 10:24:14;;;;;;;;;;;9.60;99.90;;;;;;5103712;28;19920;-70
2023/12/11 10:26:47;;;;;;;;;;;9.60;99.90;;;;;;5104816;28;19920;-70
2023/12/11 10:29:17;;;;;;;;;;;9.60;99.90;;;;;;5104094;28;19920;-69
2023/12/11 10:31:44;;;;;;;;;;;9.70;99.90;;;;;;5098400;28;20197;-70
2023/12/11 10:34:10;;;;;;;;;;;9.90;99.90;;;;;;5104637;28;19921;-70
2023/12/11 10:36:47;;;;;;;;;;;10.10;99.90;;;;;;5100153;28;19920;-70
2023/12/11 10:39:13;;;;;;;;;;;10.20;99.90;;;;;;5099522;28;19927;-70
2023/12/11 10:41:40;;;;;;;;;;;10.30;99.90;;;;;;5105391;28;20109;-70
2023/12/11 10:44:08;;;;;;;;;;;10.40;99.90;;;;;;5104519;28;19955;-70
2023/12/11 10:46:35;;;;;;;;;;;10.50;99.90;;;;;;5104716;28;19951;-70
2023/12/11 10:49:02;;;;;;;;;;;10.60;99.90;;;;;;5093632;28;20321;-70
2023/12/11 10:51:28;;;;;;;;;;;10.70;99.90;;;;;;5104940;28;19952;-69
2023/12/11 10:53:55;;;;;;;;;;;10.80;99.90;;;;;;5104211;28;19916;-70
2023/12/11 10:56:21;;;;;;;;;;;10.80;99.90;;;;;;5104434;28;19986;-70
2023/12/11 10:58:49;;;;;;;;;;;10.70;99.90;;;;;;5104346;28;20116;-69
2023/12/11 11:01:17;;;;;;;;;;;10.80;99.90;;;;;;5104673;28;19939;-70
2023/12/11 11:03:43;;;;;;;;;;;10.80;99.90;;;;;;5095812;28;19960;-70
2023/12/11 11:06:11;;;;;;;;;;;11.00;99.90;;;;;;5104190;28;19920;-70
2023/12/11 11:08:41;;;;;;;;;;;11.10;99.90;;;;;;5104334;28;19926;-70
2023/12/11 11:11:10;;;;;;;;;;;11.00;99.90;;;;;;5104083;28;20213;-69
2023/12/11 11:13:42;;;;;;;;;;;10.90;99.90;;;;;;5103971;28;19983;-70
2023/12/11 11:16:09;;;;;;;;;;;10.90;99.90;;;;;;5103642;28;19958;-69
2023/12/11 11:18:51;;;;;;;;;;;10.90;99.90;;;;;;5104121;28;19959;-70
2023/12/11 11:21:18;;;;;;;;;;;10.90;99.90;;;;;;5099617;28;19991;-69
2023/12/11 11:23:46;;;;;;;;;;;10.80;99.90;;;;;;5094626;28;19934;-70
2023/12/11 11:26:27;;;;;;;;;;;10.80;99.90;;;;;;5104005;28;19928;-70
2023/12/11 11:28:54;;;;;;;;;;;10.90;99.90;;;;;;5099496;28;19983;-70
2023/12/11 11:31:21;;;;;;;;;;;11.00;99.90;;;;;;5103952;28;19920;-70
2023/12/11 11:33:49;;;;;;;;;;;11.00;99.90;;;;;;5102697;28;19995;-70
2023/12/11 11:36:17;;;;;;;;;;;11.00;99.90;;;;;;5103977;28;19983;-69
2023/12/11 11:38:55;;;;;;;;;;;11.20;99.90;;;;;;5103566;28;19926;-70
2023/12/11 11:41:22;;;;;;;;;;;11.40;99.90;;;;;;5098115;28;20205;-70
2023/12/11 11:43:56;;;;;;;;;;;11.50;99.90;;;;;;5102639;28;20110;-70
2023/12/11 11:46:23;;;;;;;;;;;11.70;99.90;;;;;;5098042;28;19947;-70
2023/12/11 11:48:50;;;;;;;;;;;11.80;99.90;;;;;;5103017;28;20260;-72
2023/12/11 11:51:17;;;;;;;;;;;11.80;99.90;;;;;;5103073;28;19920;-70
2023/12/11 11:53:45;;;;;;;;;;;11.90;99.90;;;;;;5103372;28;19939;-70
2023/12/11 11:56:13;;;;;;;;;;;12.00;99.90;;;;;;5103169;28;19962;-69
2023/12/11 11:58:39;;;;;;;;;;;12.00;99.90;;;;;;5103301;28;19983;-69
2023/12/11 12:01:06;;;;;;;;;;;12.10;99.90;;;;;;5103471;28;19919;-70
2023/12/11 12:03:39;;;;;;;;;;;12.10;99.90;;;;;;5094927;28;20102;-69
2023/12/11 12:06:06;;;;;;;;;;;12.20;99.90;;;;;;5101157;28;19992;-71
2023/12/11 12:08:34;;;;;;;;;;;12.10;99.90;;;;;;5102148;28;19920;-71
2023/12/11 12:11:11;;;;;;;;;;;12.00;99.90;;;;;;5103240;28;19948;-70
2023/12/11 12:13:45;;;;;;;;;;;11.90;99.90;;;;;;5103286;28;19965;-72
2023/12/11 12:16:12;;;;;;;;;;;11.70;99.90;;;;;;5103168;28;19928;-70
2023/12/11 12:18:48;;;;;;;;;;;11.50;99.90;;;;;;5103227;28;19920;-70
2023/12/11 12:21:14;;;;;;;;;;;11.50;99.90;;;;;;5103508;28;19983;-71
2023/12/11 12:23:41;;;;;;;;;;;11.40;99.90;;;;;;5103272;28;19987;-71
2023/12/11 12:26:08;;;;;;;;;;;11.20;99.90;;;;;;5102894;28;19920;-71
2023/12/11 12:28:34;;;;;;;;;;;11.20;99.90;;;;;;5102875;28;19927;-70
2023/12/11 12:31:03;;;;;;;;;;;11.20;99.90;;;;;;5103419;28;19955;-71
2023/12/11 12:33:29;;;;;;;;;;;11.20;99.90;;;;;;5103266;28;19924;-70
2023/12/11 12:35:56;;;;;;;;;;;11.10;99.90;;;;;;5102432;28;19951;-71
2023/12/11 12:38:23;;;;;;;;;;;11.10;99.90;;;;;;5103196;28;19951;-70
2023/12/11 12:40:53;;;;;;;;;;;11.00;99.90;;;;;;5098297;28;19992;-70
2023/12/11 12:43:20;;;;;;;;;;;11.00;99.90;;;;;;5097311;28;19920;-71
2023/12/11 12:45:46;;;;;;;;;;;11.10;99.90;;;;;;5091022;28;19996;-71
2023/12/11 12:48:14;;;;;;;;;;;11.30;99.90;;;;;;5102696;28;19956;-70
2023/12/11 12:50:41;;;;;;;;;;;11.40;99.90;;;;;;5108925;28;19959;-70
2023/12/11 12:53:09;;;;;;;;;;;11.60;99.90;;;;;;5094542;28;19920;-71
2023/12/11 12:55:36;;;;;;;;;;;11.60;99.90;;;;;;5101981;28;19983;-71
2023/12/11 12:58:03;;;;;;;;;;;11.60;99.90;;;;;;5096010;28;19928;-70
2023/12/11 13:00:29;;;;;;;;;;;11.60;99.90;;;;;;5102836;28;19920;-71
2023/12/11 13:02:56;;;;;;;;;;;11.40;99.90;;;;;;5099579;28;19992;-71
2023/12/11 13:05:38;;;;;;;;;;;11.40;99.90;;;;;;5100381;28;19920;-70
2023/12/11 13:08:06;;;;;;;;;;;11.40;99.90;;;;;;5104269;28;19992;-71
2023/12/11 13:10:33;;;;;;;;;;;11.40;99.90;;;;;;5106579;28;20000;-70
2023/12/11 13:12:59;;;;;;;;;;;11.50;99.90;;;;;;5106514;28;19987;-70
2023/12/11 13:15:26;;;;;;;;;;;11.40;99.90;;;;;;5101013;28;19920;-70
2023/12/11 13:17:52;;;;;;;;;;;11.40;99.90;;;;;;5097492;28;19920;-71
2023/12/11 13:20:20;;;;;;;;;;;11.30;99.90;;;;;;5100170;28;19924;-70
2023/12/11 13:22:47;;;;;;;;;;;11.20;99.90;;;;;;5106606;28;19920;-71
2023/12/11 13:25:16;;;;;;;;;;;11.20;99.90;;;;;;5105809;28;20118;-72
2023/12/11 13:27:46;;;;;;;;;;;11.10;99.90;;;;;;5106403;28;19920;-71
2023/12/11 13:30:14;;;;;;;;;;;11.10;99.90;;;;;;5106479;28;19928;-70
2023/12/11 13:32:41;;;;;;;;;;;11.00;99.90;;;;;;5105093;28;19952;-71
2023/12/11 13:35:08;;;;;;;;;;;11.00;99.90;;;;;;5105925;28;19920;-71
2023/12/11 13:37:34;;;;;;;;;;;10.90;99.90;;;;;;5106550;28;19958;-72
2023/12/11 13:40:01;;;;;;;;;;;10.90;99.90;;;;;;5106607;28;19987;-71
2023/12/11 13:42:29;;;;;;;;;;;10.90;99.90;;;;;;5106647;28;19920;-72
2023/12/11 13:44:58;;;;;;;;;;;10.80;99.90;;;;;;5105452;28;20210;-73
2023/12/11 13:47:25;;;;;;;;;;;10.90;99.90;;;;;;5106188;28;19920;-71
2023/12/11 13:49:51;;;;;;;;;;;10.80;99.90;;;;;;5106190;28;19930;-71
2023/12/11 13:52:18;;;;;;;;;;;10.80;99.90;;;;;;5099798;28;19927;-72
2023/12/11 13:54:45;;;;;;;;;;;10.80;99.90;;;;;;5105561;28;19947;-71
2023/12/11 13:57:11;;;;;;;;;;;10.80;99.90;;;;;;5105857;28;19926;-71
2023/12/11 13:59:40;;;;;;;;;;;10.70;99.90;;;;;;5106168;28;20004;-71
2023/12/11 14:02:07;;;;;;;;;;;10.70;99.90;;;;;;5105845;28;20210;-72
2023/12/11 14:04:33;;;;;;;;;;;10.70;99.90;;;;;;5101542;28;19920;-72
2023/12/11 14:07:00;;;;;;;;;;;10.60;99.90;;;;;;5105243;28;19979;-71
2023/12/11 14:09:29;;;;;;;;;;;10.60;99.90;;;;;;5105686;28;19920;-71
2023/12/11 14:11:56;;;;;;;;;;;10.60;99.90;;;;;;5105609;28;20010;-71
2023/12/11 14:14:22;;;;;;;;;;;10.60;99.90;;;;;;5104428;28;20273;-71
2023/12/11 14:16:50;;;;;;;;;;;10.60;99.90;;;;;;5106315;28;19920;-71
2023/12/11 14:19:17;;;;;;;;;;;10.60;99.90;;;;;;5105553;28;19983;-70
2023/12/11 14:21:44;;;;;;;;;;;10.60;99.90;;;;;;5105361;28;19920;-71
2023/12/11 14:24:10;;;;;;;;;;;10.50;99.90;;;;;;5104420;28;19960;-70
2023/12/11 14:26:37;;;;;;;;;;;10.50;99.90;;;;;;5111714;28;19923;-71